createdAt,value
2019-01-28T00:00:17.371Z,2.67
2019-01-28T00:01:23.368Z,2.62
2019-01-28T00:02:17.334Z,2.67
2019-01-28T00:03:17.376Z,2.55
2019-01-28T00:04:17.301Z,2.49
2019-01-28T00:05:17.811Z,2.58
2019-01-28T00:06:17.024Z,2.62
2019-01-28T00:07:17.251Z,2.59
2019-01-28T00:08:17.239Z,2.55
2019-01-28T00:09:17.211Z,2.55
2019-01-28T00:10:17.204Z,2.58
2019-01-28T00:11:17.182Z,2.55
2019-01-28T00:12:18.827Z,2.62
2019-01-28T00:13:17.148Z,2.54
2019-01-28T00:14:16.881Z,2.52
2019-01-28T00:15:17.120Z,2.55
2019-01-28T00:16:16.600Z,2.59
2019-01-28T00:17:17.081Z,2.55
2019-01-28T00:18:17.362Z,2.52
2019-01-28T00:19:17.047Z,2.55
2019-01-28T00:20:16.777Z,2.6
2019-01-28T00:21:17.010Z,2.52
2019-01-28T00:22:17.003Z,2.49
2019-01-28T00:23:16.973Z,2.44
2019-01-28T00:24:16.953Z,2.41
2019-01-28T00:25:16.940Z,2.33
2019-01-28T00:26:16.977Z,2.36
2019-01-28T00:27:16.903Z,2.34
2019-01-28T00:28:16.885Z,2.3
2019-01-28T00:29:16.869Z,2.34
2019-01-28T00:30:16.855Z,2.34
2019-01-28T00:31:16.834Z,2.38
2019-01-28T00:32:16.817Z,2.33
2019-01-28T00:33:16.797Z,2.3
2019-01-28T00:34:16.534Z,2.31
2019-01-28T00:35:16.770Z,2.36
2019-01-28T00:36:16.746Z,2.33
2019-01-28T00:37:16.485Z,2.36
2019-01-28T00:38:16.467Z,2.31
2019-01-28T00:39:16.709Z,2.27
2019-01-28T00:40:16.676Z,2.18
2019-01-28T00:41:16.664Z,2.16
2019-01-28T00:42:16.637Z,2.22
2019-01-28T00:43:16.624Z,2.2
2019-01-28T00:44:16.604Z,2.13
2019-01-28T00:45:16.587Z,2.16
2019-01-28T00:46:16.571Z,2.09
2019-01-28T00:47:16.550Z,2.15
2019-01-28T00:48:16.744Z,2.15
2019-01-28T00:49:16.519Z,2.13
2019-01-28T00:50:16.505Z,2.18
2019-01-28T00:51:16.491Z,2.2
2019-01-28T00:52:16.464Z,2.15
2019-01-28T00:53:16.597Z,2.16
2019-01-28T00:54:16.433Z,2.15
2019-01-28T00:55:16.415Z,2.18
2019-01-28T00:56:16.392Z,2.11
2019-01-28T00:57:16.385Z,2.13
2019-01-28T00:58:16.121Z,2.06
2019-01-28T00:59:16.095Z,2.15
2019-01-28T01:00:16.323Z,2.15
2019-01-28T01:01:16.302Z,2.08
2019-01-28T01:02:16.293Z,2.18
2019-01-28T01:03:16.028Z,2.06
2019-01-28T01:04:16.007Z,2.13
2019-01-28T01:05:16.236Z,2.12
2019-01-28T01:06:16.220Z,2.09
2019-01-28T01:07:16.197Z,2.09
2019-01-28T01:08:16.185Z,2.11
2019-01-28T01:09:16.162Z,2.12
2019-01-28T01:10:15.907Z,2.02
2019-01-28T01:11:16.128Z,2.09
2019-01-28T01:12:15.866Z,2.04
2019-01-28T01:13:16.099Z,2.12
2019-01-28T01:14:16.071Z,2.05
2019-01-28T01:15:15.809Z,2.02
2019-01-28T01:16:16.042Z,2.02
2019-01-28T01:17:16.024Z,1.79
2019-01-28T01:18:16.006Z,1.83
2019-01-28T01:19:15.746Z,1.79
2019-01-28T01:20:15.969Z,1.86
2019-01-28T01:21:15.954Z,1.84
2019-01-28T01:22:15.936Z,1.9
2019-01-28T01:23:15.667Z,1.97
2019-01-28T01:24:15.649Z,1.86
2019-01-28T01:25:15.884Z,1.93
2019-01-28T01:26:15.871Z,1.84
2019-01-28T01:27:15.846Z,1.97
2019-01-28T01:28:15.836Z,1.86
2019-01-28T01:29:15.564Z,1.86
2019-01-28T01:30:15.795Z,1.94
2019-01-28T01:31:15.771Z,1.97
2019-01-28T01:32:15.774Z,1.92
2019-01-28T01:33:15.749Z,2.01
2019-01-28T01:34:15.625Z,1.82
2019-01-28T01:35:15.700Z,1.92
2019-01-28T01:36:15.688Z,2.01
2019-01-28T01:37:15.673Z,1.83
2019-01-28T01:38:15.398Z,1.79
2019-01-28T01:39:15.639Z,1.89
2019-01-28T01:40:15.609Z,1.84
2019-01-28T01:41:15.597Z,1.86
2019-01-28T01:42:15.336Z,1.87
2019-01-28T01:43:15.315Z,1.89
2019-01-28T01:44:15.296Z,1.84
2019-01-28T01:45:15.526Z,1.84
2019-01-28T01:46:15.259Z,1.86
2019-01-28T01:47:15.240Z,1.82
2019-01-28T01:48:15.218Z,1.84
2019-01-28T01:49:15.452Z,1.83
2019-01-28T01:50:15.433Z,1.86
2019-01-28T01:51:15.416Z,1.87
2019-01-28T01:52:15.395Z,1.84
2019-01-28T01:53:15.132Z,1.89
2019-01-28T01:54:15.361Z,1.87
2019-01-28T01:55:15.351Z,1.92
2019-01-28T01:56:15.328Z,1.87
2019-01-28T01:57:15.311Z,2.01
2019-01-28T01:58:15.483Z,1.83
2019-01-28T01:59:15.276Z,1.86
2019-01-28T02:00:15.008Z,1.87
2019-01-28T02:01:14.993Z,1.86
2019-01-28T02:02:14.731Z,1.92
2019-01-28T02:03:15.208Z,1.87
2019-01-28T02:04:14.939Z,1.87
2019-01-28T02:05:15.167Z,1.83
2019-01-28T02:06:15.154Z,1.83
2019-01-28T02:07:15.128Z,1.79
2019-01-28T02:08:15.114Z,1.86
2019-01-28T02:09:15.098Z,1.79
2019-01-28T02:10:15.082Z,1.84
2019-01-28T02:11:15.062Z,1.75
2019-01-28T02:12:15.041Z,1.89
2019-01-28T02:13:14.780Z,1.74
2019-01-28T02:14:15.017Z,1.72
2019-01-28T02:15:14.742Z,1.72
2019-01-28T02:16:14.966Z,1.76
2019-01-28T02:17:14.954Z,1.74
2019-01-28T02:18:14.935Z,1.68
2019-01-28T02:19:14.919Z,1.68
2019-01-28T02:20:14.650Z,1.71
2019-01-28T02:21:14.880Z,1.66
2019-01-28T02:22:14.861Z,1.56
2019-01-28T02:23:14.844Z,1.57
2019-01-28T02:24:14.829Z,1.64
2019-01-28T02:25:14.562Z,1.64
2019-01-28T02:26:14.794Z,1.54
2019-01-28T02:27:14.777Z,1.56
2019-01-28T02:28:14.754Z,1.57
2019-01-28T02:29:14.739Z,1.58
2019-01-28T02:30:14.721Z,1.54
2019-01-28T02:31:14.207Z,1.51
2019-01-28T02:32:14.686Z,1.54
2019-01-28T02:33:14.669Z,1.56
2019-01-28T02:34:14.649Z,1.44
2019-01-28T02:35:14.634Z,1.48
2019-01-28T02:36:14.625Z,1.53
2019-01-28T02:37:14.595Z,1.5
2019-01-28T02:38:14.579Z,1.54
2019-01-28T02:39:14.563Z,1.47
2019-01-28T02:40:14.548Z,1.51
2019-01-28T02:41:14.280Z,1.53
2019-01-28T02:42:14.518Z,1.44
2019-01-28T02:43:14.488Z,1.46
2019-01-28T02:44:14.468Z,1.57
2019-01-28T02:45:14.455Z,1.42
2019-01-28T02:46:14.432Z,1.53
2019-01-28T02:47:14.427Z,1.51
2019-01-28T02:48:14.404Z,1.4
2019-01-28T02:49:14.382Z,1.58
2019-01-28T02:50:14.366Z,1.53
2019-01-28T02:51:14.345Z,1.42
2019-01-28T02:52:14.323Z,1.51
2019-01-28T02:53:14.316Z,1.47
2019-01-28T02:54:14.285Z,1.48
2019-01-28T02:55:14.296Z,1.48
2019-01-28T02:56:14.262Z,1.46
2019-01-28T02:57:14.234Z,1.48
2019-01-28T02:58:14.223Z,1.47
2019-01-28T02:59:14.197Z,1.36
2019-01-28T03:00:14.180Z,1.44
2019-01-28T03:01:14.164Z,1.36
2019-01-28T03:02:13.897Z,1.4
2019-01-28T03:03:14.138Z,1.48
2019-01-28T03:04:14.115Z,1.42
2019-01-28T03:05:14.095Z,1.46
2019-01-28T03:06:14.070Z,1.47
2019-01-28T03:07:13.815Z,1.38
2019-01-28T03:08:14.042Z,1.42
2019-01-28T03:09:14.017Z,1.36
2019-01-28T03:10:14.002Z,1.46
2019-01-28T03:11:15.308Z,1.42
2019-01-28T03:12:13.969Z,1.5
2019-01-28T03:13:13.947Z,1.51
2019-01-28T03:14:13.692Z,1.47
2019-01-28T03:15:13.924Z,1.46
2019-01-28T03:16:13.896Z,1.4
2019-01-28T03:17:13.877Z,1.36
2019-01-28T03:18:13.860Z,1.4
2019-01-28T03:19:13.838Z,1.3
2019-01-28T03:20:13.867Z,1.33
2019-01-28T03:21:13.804Z,1.35
2019-01-28T03:22:13.785Z,1.21
2019-01-28T03:23:13.778Z,1.24
2019-01-28T03:24:13.756Z,1.26
2019-01-28T03:25:13.732Z,1.15
2019-01-28T03:26:13.712Z,1.17
2019-01-28T03:27:13.700Z,1.2
2019-01-28T03:28:13.678Z,1.12
2019-01-28T03:29:13.660Z,1.15
2019-01-28T03:30:13.645Z,1.14
2019-01-28T03:31:13.412Z,1.08
2019-01-28T03:32:13.630Z,1.2
2019-01-28T03:33:13.787Z,1.12
2019-01-28T03:34:13.580Z,1.1
2019-01-28T03:35:13.547Z,1
2019-01-28T03:36:13.544Z,1.08
2019-01-28T03:37:13.511Z,1.12
2019-01-28T03:38:13.494Z,1.08
2019-01-28T03:39:13.471Z,1.02
2019-01-28T03:40:13.465Z,1.04
2019-01-28T03:41:13.442Z,1.07
2019-01-28T03:42:13.421Z,1.08
2019-01-28T03:43:13.403Z,1.11
2019-01-28T03:44:13.384Z,1.03
2019-01-28T03:45:13.368Z,1.07
2019-01-28T03:46:14.708Z,1.04
2019-01-28T03:47:13.331Z,1.02
2019-01-28T03:48:13.309Z,0.99
2019-01-28T03:49:13.290Z,0.94
2019-01-28T03:50:13.273Z,0.94
2019-01-28T03:51:13.268Z,0.96
2019-01-28T03:52:13.049Z,0.93
2019-01-28T03:53:13.230Z,0.97
2019-01-28T03:54:13.212Z,0.89
2019-01-28T03:55:12.938Z,0.93
2019-01-28T03:56:13.166Z,0.93
2019-01-28T03:57:13.148Z,0.9
2019-01-28T03:58:13.126Z,0.9
2019-01-28T03:59:13.109Z,0.92
2019-01-28T04:00:12.603Z,0.9
2019-01-28T04:01:13.069Z,0.9
2019-01-28T04:02:12.809Z,0.78
2019-01-28T04:03:13.040Z,0.84
2019-01-28T04:04:13.016Z,0.84
2019-01-28T04:05:12.995Z,0.9
2019-01-28T04:06:12.973Z,0.84
2019-01-28T04:07:12.964Z,0.86
2019-01-28T04:08:12.938Z,0.74
2019-01-28T04:09:12.926Z,0.71
2019-01-28T04:10:12.906Z,0.72
2019-01-28T04:11:12.883Z,0.69
2019-01-28T04:12:12.621Z,0.71
2019-01-28T04:13:12.848Z,0.67
2019-01-28T04:14:12.829Z,0.63
2019-01-28T04:15:12.814Z,0.63
2019-01-28T04:16:12.797Z,0.58
2019-01-28T04:17:12.779Z,0.57
2019-01-28T04:18:12.509Z,0.53
2019-01-28T04:19:12.737Z,0.66
2019-01-28T04:20:12.483Z,0.63
2019-01-28T04:21:12.707Z,0.67
2019-01-28T04:22:12.442Z,0.67
2019-01-28T04:23:12.664Z,0.64
2019-01-28T04:24:12.395Z,0.72
2019-01-28T04:25:12.625Z,0.78
2019-01-28T04:26:12.609Z,0.76
2019-01-28T04:27:12.591Z,0.69
2019-01-28T04:28:12.573Z,0.72
2019-01-28T04:29:12.552Z,0.71
2019-01-28T04:30:12.534Z,0.72
2019-01-28T04:31:12.517Z,0.74
2019-01-28T04:32:12.497Z,0.69
2019-01-28T04:33:12.477Z,0.79
2019-01-28T04:34:12.472Z,0.71
2019-01-28T04:35:12.462Z,0.79
2019-01-28T04:36:12.430Z,0.75
2019-01-28T04:37:12.404Z,0.71
2019-01-28T04:38:12.393Z,0.69
2019-01-28T04:39:12.370Z,0.71
2019-01-28T04:40:12.352Z,0.61
2019-01-28T04:41:12.332Z,0.63
2019-01-28T04:42:12.315Z,0.52
2019-01-28T04:43:12.290Z,0.56
2019-01-28T04:44:12.279Z,0.45
2019-01-28T04:45:12.257Z,0.48
2019-01-28T04:46:12.255Z,0.39
2019-01-28T04:47:11.977Z,0.37
2019-01-28T04:48:12.202Z,0.38
2019-01-28T04:49:12.180Z,0.31
2019-01-28T04:50:11.916Z,0.45
2019-01-28T04:51:12.162Z,0.42
2019-01-28T04:52:12.131Z,0.34
2019-01-28T04:53:11.856Z,0.31
2019-01-28T04:54:12.089Z,0.35
2019-01-28T04:55:12.076Z,0.41
2019-01-28T04:56:11.805Z,0.44
2019-01-28T04:57:12.036Z,0.34
2019-01-28T04:58:12.026Z,0.38
2019-01-28T04:59:12.001Z,0.39
2019-01-28T05:00:11.989Z,0.47
2019-01-28T05:01:11.460Z,0.53
2019-01-28T05:02:11.935Z,0.53
2019-01-28T05:03:11.675Z,0.5
2019-01-28T05:04:11.904Z,0.48
2019-01-28T05:05:11.887Z,0.61
2019-01-28T05:06:12.933Z,0.64
2019-01-28T05:07:11.844Z,0.66
2019-01-28T05:08:11.832Z,0.69
2019-01-28T05:09:11.567Z,0.67
2019-01-28T05:10:11.788Z,0.78
2019-01-28T05:11:11.526Z,0.71
2019-01-28T05:12:11.753Z,0.75
2019-01-28T05:13:11.735Z,0.69
2019-01-28T05:14:11.716Z,0.78
2019-01-28T05:15:11.697Z,0.72
2019-01-28T05:16:12.081Z,0.79
2019-01-28T05:17:11.662Z,0.81
2019-01-28T05:18:11.641Z,0.81
2019-01-28T05:19:11.630Z,0.78
2019-01-28T05:20:11.386Z,0.75
2019-01-28T05:21:11.585Z,0.78
2019-01-28T05:22:11.565Z,0.85
2019-01-28T05:23:11.544Z,0.84
2019-01-28T05:24:11.534Z,0.71
2019-01-28T05:25:11.259Z,0.78
2019-01-28T05:26:11.498Z,0.86
2019-01-28T05:27:11.485Z,0.74
2019-01-28T05:28:11.469Z,0.74
2019-01-28T05:29:11.500Z,0.78
2019-01-28T05:30:11.416Z,0.86
2019-01-28T05:31:11.148Z,0.82
2019-01-28T05:32:11.130Z,0.82
2019-01-28T05:33:11.386Z,0.81
2019-01-28T05:34:11.101Z,0.82
2019-01-28T05:35:11.328Z,0.82
2019-01-28T05:36:11.058Z,0.81
2019-01-28T05:37:11.312Z,0.84
2019-01-28T05:38:11.022Z,0.84
2019-01-28T05:39:11.312Z,0.84
2019-01-28T05:40:10.989Z,0.85
2019-01-28T05:41:11.212Z,0.75
2019-01-28T05:42:11.220Z,0.76
2019-01-28T05:43:11.184Z,0.78
2019-01-28T05:44:11.164Z,0.84
2019-01-28T05:45:11.139Z,0.72
2019-01-28T05:46:11.117Z,0.85
2019-01-28T05:47:11.109Z,0.75
2019-01-28T05:48:10.591Z,0.79
2019-01-28T05:49:11.066Z,0.82
2019-01-28T05:50:11.043Z,0.78
2019-01-28T05:51:11.025Z,0.82
2019-01-28T05:52:11.022Z,0.82
2019-01-28T05:53:10.994Z,0.85
2019-01-28T05:54:10.975Z,0.85
2019-01-28T05:55:10.959Z,0.78
2019-01-28T05:56:10.940Z,0.72
2019-01-28T05:57:11.206Z,0.71
2019-01-28T05:58:10.902Z,0.81
2019-01-28T05:59:10.893Z,0.76
2019-01-28T06:00:10.621Z,0.78
2019-01-28T06:01:10.844Z,0.72
2019-01-28T06:02:10.834Z,0.69
2019-01-28T06:03:10.811Z,0.72
2019-01-28T06:04:10.791Z,0.74
2019-01-28T06:05:10.527Z,0.76
2019-01-28T06:06:10.504Z,0.78
2019-01-28T06:07:10.738Z,0.71
2019-01-28T06:08:10.713Z,0.71
2019-01-28T06:09:10.698Z,0.66
2019-01-28T06:10:10.678Z,0.69
2019-01-28T06:11:10.661Z,0.75
2019-01-28T06:12:10.639Z,0.71
2019-01-28T06:13:10.624Z,0.63
2019-01-28T06:14:10.601Z,0.72
2019-01-28T06:15:10.581Z,0.74
2019-01-28T06:16:10.567Z,0.74
2019-01-28T06:17:10.548Z,0.76
2019-01-28T06:18:10.532Z,0.72
2019-01-28T06:19:10.512Z,0.74
2019-01-28T06:20:10.491Z,0.75
2019-01-28T06:21:10.472Z,0.66
2019-01-28T06:22:10.449Z,0.61
2019-01-28T06:23:10.437Z,0.66
2019-01-28T06:24:10.179Z,0.45
2019-01-28T06:25:10.167Z,0.52
2019-01-28T06:26:10.378Z,0.57
2019-01-28T06:27:10.356Z,0.53
2019-01-28T06:28:10.339Z,0.5
2019-01-28T06:29:10.321Z,0.53
2019-01-28T06:30:10.302Z,0.56
2019-01-28T06:31:10.031Z,0.56
2019-01-28T06:32:10.268Z,0.52
2019-01-28T06:33:10.251Z,0.5
2019-01-28T06:34:10.230Z,0.47
2019-01-28T06:35:09.990Z,0.52
2019-01-28T06:36:10.192Z,0.48
2019-01-28T06:37:10.173Z,0.5
2019-01-28T06:38:10.178Z,0.56
2019-01-28T06:39:10.133Z,0.53
2019-01-28T06:40:10.122Z,0.45
2019-01-28T06:41:10.096Z,0.5
2019-01-28T06:42:10.074Z,0.44
2019-01-28T06:43:10.060Z,0.42
2019-01-28T06:44:10.041Z,0.39
2019-01-28T06:45:10.023Z,0.32
2019-01-28T06:46:10.004Z,0.34
2019-01-28T06:47:09.984Z,0.44
2019-01-28T06:48:09.967Z,0.37
2019-01-28T06:49:09.698Z,0.42
2019-01-28T06:50:09.930Z,0.39
2019-01-28T06:51:10.420Z,0.35
2019-01-28T06:52:09.888Z,0.45
2019-01-28T06:53:09.623Z,0.41
2019-01-28T06:54:09.858Z,0.39
2019-01-28T06:55:09.835Z,0.42
2019-01-28T06:56:09.816Z,0.39
2019-01-28T06:57:09.550Z,0.53
2019-01-28T06:58:09.774Z,0.47
2019-01-28T06:59:09.753Z,0.47
2019-01-28T07:00:09.749Z,0.47
2019-01-28T07:01:09.725Z,0.53
2019-01-28T07:02:09.704Z,0.52
2019-01-28T07:03:09.688Z,0.52
2019-01-28T07:04:09.417Z,0.52
2019-01-28T07:05:09.641Z,0.58
2019-01-28T07:06:09.625Z,0.56
2019-01-28T07:07:09.610Z,0.56
2019-01-28T07:08:09.594Z,0.64
2019-01-28T07:09:09.568Z,0.63
2019-01-28T07:10:09.548Z,0.63
2019-01-28T07:11:09.286Z,0.64
2019-01-28T07:12:09.520Z,0.64
2019-01-28T07:13:09.495Z,0.71
2019-01-28T07:14:09.477Z,0.69
2019-01-28T07:15:09.212Z,0.67
2019-01-28T07:16:09.437Z,0.64
2019-01-28T07:17:09.445Z,0.64
2019-01-28T07:18:09.406Z,0.6
2019-01-28T07:19:09.380Z,0.71
2019-01-28T07:20:09.363Z,0.74
2019-01-28T07:21:09.341Z,0.69
2019-01-28T07:22:09.328Z,0.67
2019-01-28T07:23:09.308Z,0.74
2019-01-28T07:24:09.296Z,0.72
2019-01-28T07:25:09.268Z,0.71
2019-01-28T07:26:09.251Z,0.78
2019-01-28T07:27:09.243Z,0.76
2019-01-28T07:28:09.213Z,0.78
2019-01-28T07:29:09.226Z,0.86
2019-01-28T07:30:09.177Z,0.79
2019-01-28T07:31:09.155Z,0.76
2019-01-28T07:32:09.138Z,0.75
2019-01-28T07:33:09.126Z,0.81
2019-01-28T07:34:09.099Z,0.85
2019-01-28T07:35:09.083Z,0.81
2019-01-28T07:36:09.067Z,0.81
2019-01-28T07:37:09.044Z,0.84
2019-01-28T07:38:09.026Z,0.79
2019-01-28T07:39:09.013Z,0.81
2019-01-28T07:40:09.008Z,0.81
2019-01-28T07:41:08.971Z,0.86
2019-01-28T07:42:08.951Z,0.99
2019-01-28T07:43:08.688Z,0.94
2019-01-28T07:44:08.923Z,1
2019-01-28T07:45:08.901Z,0.99
2019-01-28T07:46:08.883Z,1.07
2019-01-28T07:47:08.861Z,0.99
2019-01-28T07:48:08.848Z,1.04
2019-01-28T07:49:08.823Z,1.11
2019-01-28T07:50:09.397Z,1.11
2019-01-28T07:51:08.784Z,1.08
2019-01-28T07:52:08.765Z,1.04
2019-01-28T07:53:08.751Z,0.99
2019-01-28T07:54:08.241Z,1.1
2019-01-28T07:55:08.712Z,1.04
2019-01-28T07:56:08.696Z,1.02
2019-01-28T07:57:08.678Z,1.1
2019-01-28T07:58:08.707Z,1.04
2019-01-28T07:59:08.639Z,0.99
2019-01-28T08:00:08.635Z,1.08
2019-01-28T08:01:08.598Z,1.04
2019-01-28T08:02:08.586Z,1.04
2019-01-28T08:03:08.560Z,1.11
2019-01-28T08:04:08.298Z,1.18
2019-01-28T08:05:08.530Z,1.17
2019-01-28T08:06:08.515Z,1.17
2019-01-28T08:07:08.247Z,1.1
2019-01-28T08:08:08.469Z,1.14
2019-01-28T08:09:08.207Z,1.17
2019-01-28T08:10:08.435Z,1.21
2019-01-28T08:11:08.416Z,1.21
2019-01-28T08:12:08.395Z,1.2
2019-01-28T08:13:08.383Z,1.32
2019-01-28T08:14:08.130Z,1.28
2019-01-28T08:15:08.355Z,1.47
2019-01-28T08:16:08.082Z,1.51
2019-01-28T08:17:08.309Z,1.56
2019-01-28T08:18:15.606Z,1.57
2019-01-28T08:19:08.023Z,1.48
2019-01-28T08:20:15.792Z,1.58
2019-01-28T08:21:07.989Z,1.47
2019-01-28T08:22:08.217Z,1.58
2019-01-28T08:23:08.203Z,1.57
2019-01-28T08:24:07.943Z,1.6
2019-01-28T08:25:08.164Z,1.61
2019-01-28T08:26:08.158Z,1.68
2019-01-28T08:27:08.131Z,1.68
2019-01-28T08:28:08.111Z,1.75
2019-01-28T08:29:08.097Z,1.75
2019-01-28T08:30:08.078Z,1.84
2019-01-28T08:31:08.066Z,1.84
2019-01-28T08:32:08.045Z,1.86
2019-01-28T08:33:08.039Z,1.87
2019-01-28T08:34:08.002Z,2.01
2019-01-28T08:35:07.987Z,1.86
2019-01-28T08:36:07.970Z,1.98
2019-01-28T08:37:07.960Z,1.84
2019-01-28T08:38:07.932Z,1.89
2019-01-28T08:39:07.916Z,1.89
2019-01-28T08:40:07.900Z,1.84
2019-01-28T08:41:07.888Z,1.83
2019-01-28T08:42:07.860Z,1.87
2019-01-28T08:43:07.603Z,1.72
2019-01-28T08:44:07.581Z,1.74
2019-01-28T08:45:07.816Z,1.72
2019-01-28T08:46:07.546Z,1.76
2019-01-28T08:47:07.775Z,1.78
2019-01-28T08:48:07.754Z,1.76
2019-01-28T08:49:07.744Z,1.74
2019-01-28T08:50:07.719Z,1.75
2019-01-28T08:51:07.700Z,1.82
2019-01-28T08:52:07.686Z,1.75
2019-01-28T08:53:07.423Z,1.72
2019-01-28T08:54:07.646Z,1.66
2019-01-28T08:55:07.638Z,1.56
2019-01-28T08:56:07.365Z,1.47
2019-01-28T08:57:07.351Z,1.42
2019-01-28T08:58:07.584Z,1.58
2019-01-28T08:59:07.561Z,1.47
2019-01-28T09:00:07.548Z,1.47
2019-01-28T09:01:07.526Z,1.42
2019-01-28T09:02:08.903Z,1.36
2019-01-28T09:03:07.249Z,1.28
2019-01-28T09:04:07.220Z,1.36
2019-01-28T09:05:07.203Z,1.35
2019-01-28T09:06:07.432Z,1.38
2019-01-28T09:07:07.172Z,1.5
2019-01-28T09:08:07.400Z,1.47
2019-01-28T09:09:07.133Z,1.51
2019-01-28T09:10:07.378Z,1.61
2019-01-28T09:11:07.340Z,1.74
2019-01-28T09:12:07.323Z,1.76
2019-01-28T09:13:07.360Z,1.76
2019-01-28T09:14:07.296Z,1.71
2019-01-28T09:15:07.749Z,1.69
2019-01-28T09:16:07.008Z,1.82
2019-01-28T09:17:07.239Z,1.86
2019-01-28T09:18:06.969Z,1.86
2019-01-28T09:19:06.956Z,1.87
2019-01-28T09:20:07.195Z,1.97
2019-01-28T09:21:06.919Z,1.98
2019-01-28T09:22:07.147Z,1.84
2019-01-28T09:23:06.884Z,1.86
2019-01-28T09:24:06.866Z,1.9
2019-01-28T09:25:07.102Z,1.94
2019-01-28T09:26:09.019Z,1.94
2019-01-28T09:27:07.073Z,1.93
2019-01-28T09:28:07.044Z,2.09
2019-01-28T09:29:07.031Z,2.08
2019-01-28T09:30:06.765Z,2.16
2019-01-28T09:31:06.738Z,2.29
2019-01-28T09:32:06.970Z,2.41
2019-01-28T09:33:06.958Z,2.54
2019-01-28T09:34:06.694Z,2.49
2019-01-28T09:35:06.671Z,2.65
2019-01-28T09:36:06.901Z,2.73
2019-01-28T09:37:06.396Z,2.84
2019-01-28T09:38:06.876Z,2.81
2019-01-28T09:39:06.852Z,2.81
2019-01-28T09:40:06.832Z,2.85
2019-01-28T09:41:06.818Z,2.91
2019-01-28T09:42:06.799Z,2.93
2019-01-28T09:43:06.781Z,3.06
2019-01-28T09:44:06.762Z,3.05
2019-01-28T09:45:06.759Z,3.03
2019-01-28T09:46:06.736Z,2.93
2019-01-28T09:47:06.713Z,3.01
2019-01-28T09:48:06.719Z,2.9
2019-01-28T09:49:06.688Z,2.87
2019-01-28T09:50:06.696Z,2.81
2019-01-28T09:51:06.648Z,2.8
2019-01-28T09:52:06.633Z,2.72
2019-01-28T09:53:06.611Z,2.51
2019-01-28T09:54:06.595Z,2.48
2019-01-28T09:55:06.579Z,2.45
2019-01-28T09:56:06.561Z,2.45
2019-01-28T09:57:06.049Z,2.55
2019-01-28T09:58:06.529Z,2.49
2019-01-28T09:59:06.267Z,2.55
2019-01-28T10:00:06.494Z,2.62
2019-01-28T10:01:06.487Z,2.55
2019-01-28T10:02:06.462Z,2.55
2019-01-28T10:03:06.439Z,2.4
2019-01-28T10:04:06.475Z,2.31
2019-01-28T10:05:06.159Z,2.31
2019-01-28T10:06:06.390Z,2.31
2019-01-28T10:07:06.127Z,2.29
2019-01-28T10:08:06.359Z,2.15
2019-01-28T10:09:10.117Z,2.26
2019-01-28T10:10:06.327Z,2.15
2019-01-28T10:11:06.304Z,2.26
2019-01-28T10:12:06.285Z,2.36
2019-01-28T10:13:06.275Z,2.48
2019-01-28T10:14:06.290Z,2.59
2019-01-28T10:15:06.241Z,2.55
2019-01-28T10:16:06.223Z,2.65
2019-01-28T10:17:06.205Z,2.54
2019-01-28T10:18:06.190Z,2.63
2019-01-28T10:19:05.924Z,2.49
2019-01-28T10:20:06.154Z,2.6
2019-01-28T10:21:06.141Z,2.63
2019-01-28T10:22:06.121Z,2.65
2019-01-28T10:23:06.102Z,2.67
2019-01-28T10:24:06.088Z,2.66
2019-01-28T10:25:05.861Z,2.65
2019-01-28T10:26:06.049Z,2.69
2019-01-28T10:27:06.028Z,2.78
2019-01-28T10:28:06.017Z,2.83
2019-01-28T10:29:06.000Z,2.77
2019-01-28T10:30:05.985Z,2.65
2019-01-28T10:31:05.968Z,2.62
2019-01-28T10:32:05.950Z,2.83
2019-01-28T10:33:05.930Z,2.96
2019-01-28T10:34:06.442Z,2.95
2019-01-28T10:35:05.902Z,2.93
2019-01-28T10:36:05.889Z,3.01
2019-01-28T10:37:05.863Z,3.05
2019-01-28T10:38:05.849Z,2.96
2019-01-28T10:39:05.883Z,2.96
2019-01-28T10:40:07.045Z,2.98
2019-01-28T10:41:05.803Z,2.93
2019-01-28T10:42:09.658Z,3.01
2019-01-28T10:43:05.766Z,2.87
2019-01-28T10:44:12.633Z,2.91
2019-01-28T10:45:05.484Z,2.9
2019-01-28T10:46:05.709Z,2.8
2019-01-28T10:47:05.700Z,2.85
2019-01-28T10:48:05.875Z,2.8
2019-01-28T10:49:05.668Z,2.73
2019-01-28T10:50:05.652Z,2.8
2019-01-28T10:51:05.630Z,2.77
2019-01-28T10:52:05.615Z,2.76
2019-01-28T10:53:05.604Z,2.85
2019-01-28T10:54:05.581Z,2.91
2019-01-28T10:55:05.563Z,2.9
2019-01-28T10:56:05.547Z,2.84
2019-01-28T10:57:05.534Z,2.83
2019-01-28T10:58:05.511Z,2.81
2019-01-28T10:59:05.502Z,2.72
2019-01-28T11:00:05.485Z,2.7
2019-01-28T11:01:05.466Z,2.62
2019-01-28T11:02:05.454Z,2.55
2019-01-28T11:03:05.429Z,2.47
2019-01-28T11:04:05.418Z,2.49
2019-01-28T11:05:05.148Z,2.58
2019-01-28T11:06:05.384Z,2.59
2019-01-28T11:07:05.365Z,2.59
2019-01-28T11:08:05.347Z,2.59
2019-01-28T11:09:05.358Z,2.62
2019-01-28T11:10:05.319Z,2.54
2019-01-28T11:11:05.514Z,2.69
2019-01-28T11:12:05.400Z,2.85
2019-01-28T11:13:05.517Z,2.84
2019-01-28T11:14:05.339Z,2.98
2019-01-28T11:15:05.517Z,3.03
2019-01-28T11:16:05.193Z,3.02
2019-01-28T11:17:05.161Z,3.09
2019-01-28T11:18:05.412Z,3.06
2019-01-28T11:19:05.389Z,3.19
2019-01-28T11:20:05.428Z,3.23
2019-01-28T11:21:05.310Z,3.21
2019-01-28T11:22:04.996Z,3.19
2019-01-28T11:23:05.461Z,3.3
2019-01-28T11:24:05.022Z,3.37
2019-01-28T11:25:06.778Z,3.48
2019-01-28T11:26:05.199Z,3.48
2019-01-28T11:27:05.072Z,3.48
2019-01-28T11:28:05.206Z,3.3
2019-01-28T11:29:05.038Z,3.21
2019-01-28T11:30:05.323Z,3.17
2019-01-28T11:31:05.258Z,3.03
2019-01-28T11:32:05.245Z,2.96
2019-01-28T11:33:04.966Z,2.96
2019-01-28T11:34:05.162Z,3.01
2019-01-28T11:35:05.455Z,3.03
2019-01-28T11:36:10.801Z,3.05
2019-01-28T11:37:05.025Z,3.05
2019-01-28T11:38:05.063Z,3.06
2019-01-28T11:39:04.925Z,2.96
2019-01-28T11:40:05.046Z,3.06
2019-01-28T11:41:05.026Z,3.08
2019-01-28T11:42:05.028Z,2.95
2019-01-28T11:43:04.825Z,2.93
2019-01-28T11:44:04.913Z,3.03
2019-01-28T11:45:04.616Z,2.95
2019-01-28T11:46:04.994Z,2.91
2019-01-28T11:47:04.933Z,2.84
2019-01-28T11:48:04.548Z,2.98
2019-01-28T11:49:10.764Z,2.85
2019-01-28T11:50:04.875Z,2.9
2019-01-28T11:51:04.635Z,2.96
2019-01-28T11:52:04.368Z,2.83
2019-01-28T11:53:04.598Z,2.87
2019-01-28T11:54:04.584Z,2.76
2019-01-28T11:55:04.569Z,2.7
2019-01-28T11:56:04.566Z,2.76
2019-01-28T11:57:04.531Z,2.76
2019-01-28T11:58:04.540Z,2.77
2019-01-28T11:59:04.497Z,2.59
2019-01-28T12:00:04.482Z,2.62
2019-01-28T12:01:04.469Z,2.52
2019-01-28T12:02:04.456Z,2.6
2019-01-28T12:03:04.437Z,2.52
2019-01-28T12:04:04.169Z,2.63
2019-01-28T12:05:04.402Z,2.67
2019-01-28T12:06:04.388Z,2.69
2019-01-28T12:07:04.368Z,2.73
2019-01-28T12:08:04.349Z,2.81
2019-01-28T12:09:04.331Z,2.95
2019-01-28T12:10:04.320Z,2.88
2019-01-28T12:11:04.051Z,3.06
2019-01-28T12:12:04.029Z,3.06
2019-01-28T12:13:04.266Z,2.98
2019-01-28T12:14:04.248Z,3.06
2019-01-28T12:15:04.482Z,2.91
2019-01-28T12:16:04.213Z,2.96
2019-01-28T12:17:04.196Z,3.02
2019-01-28T12:18:05.884Z,3.13
2019-01-28T12:19:04.171Z,3.13
2019-01-28T12:20:03.901Z,3.21
2019-01-28T12:21:04.134Z,3.2
2019-01-28T12:22:04.112Z,3.2
2019-01-28T12:23:04.101Z,3.19
2019-01-28T12:24:04.083Z,3.17
2019-01-28T12:25:04.064Z,3.17
2019-01-28T12:26:04.049Z,3.05
2019-01-28T12:27:03.789Z,3.08
2019-01-28T12:28:04.019Z,3.01
2019-01-28T12:29:03.996Z,3.03
2019-01-28T12:30:03.740Z,2.96
2019-01-28T12:31:03.967Z,3.01
2019-01-28T12:32:03.702Z,3.02
2019-01-28T12:33:03.935Z,2.99
2019-01-28T12:34:03.919Z,2.88
2019-01-28T12:35:03.650Z,2.84
2019-01-28T12:36:03.890Z,2.8
2019-01-28T12:37:03.864Z,2.73
2019-01-28T12:38:03.604Z,2.8
2019-01-28T12:39:03.581Z,2.78
2019-01-28T12:40:03.964Z,2.81
2019-01-28T12:41:03.798Z,2.78
2019-01-28T12:42:03.784Z,2.78
2019-01-28T12:43:03.763Z,2.88
2019-01-28T12:44:03.753Z,2.87
2019-01-28T12:45:03.738Z,2.77
2019-01-28T12:46:03.544Z,2.84
2019-01-28T12:47:03.696Z,2.8
2019-01-28T12:48:03.691Z,2.78
2019-01-28T12:49:03.666Z,2.65
2019-01-28T12:50:03.654Z,2.59
2019-01-28T12:51:03.627Z,2.58
2019-01-28T12:52:03.640Z,2.55
2019-01-28T12:53:03.618Z,2.51
2019-01-28T12:54:03.628Z,2.33
2019-01-28T12:55:03.627Z,2.44
2019-01-28T12:56:03.545Z,2.44
2019-01-28T12:57:03.536Z,2.36
2019-01-28T12:58:03.269Z,2.41
2019-01-28T12:59:11.304Z,2.52
2019-01-28T13:00:03.785Z,2.41
2019-01-28T13:01:03.464Z,2.45
2019-01-28T13:02:03.439Z,2.48
2019-01-28T13:03:03.427Z,2.42
2019-01-28T13:04:03.408Z,2.48
2019-01-28T13:05:03.394Z,2.49
2019-01-28T13:06:03.389Z,2.36
2019-01-28T13:07:03.357Z,2.48
2019-01-28T13:08:03.344Z,2.4
2019-01-28T13:09:03.325Z,2.45
2019-01-28T13:10:03.309Z,2.58
2019-01-28T13:11:03.291Z,2.55
2019-01-28T13:12:03.269Z,2.54
2019-01-28T13:13:03.016Z,2.63
2019-01-28T13:14:03.239Z,2.63
2019-01-28T13:15:03.521Z,2.7
2019-01-28T13:16:03.199Z,2.62
2019-01-28T13:17:03.194Z,2.59
2019-01-28T13:18:03.167Z,2.54
2019-01-28T13:19:03.153Z,2.55
2019-01-28T13:20:03.133Z,2.49